Time;durP1;ratioP1;P1;durP2;ratioP2;P2;SDS_P1;SDS_P2;PMS_P1;PMS_P2;Temp;Humidity;BMP_temperature;BMP_pressure;BME280_temperature;BME280_humidity;BME280_pressure;Samples;Min_cycle;Max_cycle;Signal;HPM_P1;HPM_P2
2024/01/10 05:56:45;;;;;;;70.90;28.70;;;;;;;-144.99;92.78;79923.02;105127;1289;600237;-76
2024/01/10 05:59:13;;;;;;;82.30;32.00;;;;;;;-144.99;92.68;79913.86;107475;1264;62379;-75
2024/01/10 06:01:40;;;;;;;70.10;28.90;;;;;;;-144.99;92.54;79900.71;107446;1264;60127;-76
2024/01/10 06:04:08;;;;;;;65.90;25.70;;;;;;;-144.99;92.60;79879.22;107499;1263;70729;-75
2024/01/10 06:06:36;;;;;;;63.70;25.00;;;;;;;-144.99;92.22;79858.52;107938;1257;74524;-76
2024/01/10 06:09:03;;;;;;;63.90;26.10;;;;;;;-144.99;91.80;79833.83;107877;1260;71480;-77
2024/01/10 06:11:31;;;;;;;60.60;24.50;;;;;;;-144.99;91.42;79812.34;107685;1258;405852;-76
2024/01/10 06:13:59;;;;;;;51.80;23.20;;;;;;;-144.99;91.12;79792.02;108019;1254;59980;-75
2024/01/10 06:16:27;;;;;;;54.50;24.90;;;;;;;-144.99;90.59;79769.73;108069;1254;71216;-81
2024/01/10 06:18:54;;;;;;;60.60;24.00;;;;;;;-144.99;89.81;79751.81;108108;1260;72234;-76
2024/01/10 06:21:24;;;;;;;64.40;26.80;;;;;;;-144.99;89.10;79732.30;107895;1260;71079;-75
2024/01/10 06:23:51;;;;;;;71.60;28.60;;;;;;;-144.99;88.28;79716.77;107937;1257;60941;-74
2024/01/10 06:26:19;;;;;;;65.30;27.10;;;;;;;-144.99;87.31;79708.41;108094;1254;60241;-74
2024/01/10 06:28:47;;;;;;;61.40;26.50;;;;;;;-144.99;86.61;79701.65;108068;1254;72685;-73
2024/01/10 06:31:15;;;;;;;68.10;29.20;;;;;;;-144.99;85.98;79696.08;108074;1254;73635;-74
2024/01/10 06:33:43;;;;;;;59.30;24.20;;;;;;;-144.99;85.49;79688.91;107974;1257;71110;-75
2024/01/10 06:36:11;;;;;;;68.50;28.40;;;;;;;-144.99;84.78;79674.98;107927;1260;60354;-75
2024/01/10 06:38:40;;;;;;;63.60;26.30;;;;;;;-144.99;83.83;79664.63;107780;1254;60372;-75
2024/01/10 06:41:08;;;;;;;55.10;24.40;;;;;;;-144.99;82.71;79663.43;107930;1254;71843;-76
2024/01/10 06:43:38;;;;;;;57.90;26.90;;;;;;;-144.99;81.75;79663.43;107946;1257;73482;-76
2024/01/10 06:46:06;;;;;;;52.80;23.30;;;;;;;-144.99;81.12;79663.03;107803;1260;73588;-76
2024/01/10 06:48:33;;;;;;;53.40;24.00;;;;;;;-144.99;80.39;79661.83;107872;1255;60448;-76
2024/01/10 06:51:02;;;;;;;57.30;23.30;;;;;;;-144.99;79.86;79661.04;107984;1254;60218;-75
2024/01/10 06:53:30;;;;;;;55.20;25.10;;;;;;;-144.99;79.34;79655.46;107959;1254;72258;-75
2024/01/10 06:55:57;;;;;;;48.10;22.00;;;;;;;-144.99;79.04;79648.30;107918;1254;73833;-75
2024/01/10 06:58:25;;;;;;;67.20;24.90;;;;;;;-144.99;78.71;79640.73;107896;1260;71510;-76
2024/01/10 07:00:52;;;;;;;59.40;24.70;;;;;;;-144.99;78.48;79633.57;107774;1260;60217;-75
2024/01/10 07:03:20;;;;;;;52.10;22.80;;;;;;;-144.99;78.42;79630.38;107870;1257;60175;-74
2024/01/10 07:05:48;;;;;;;47.80;20.70;;;;;;;-144.99;78.19;79620.03;108094;1260;73588;-75
2024/01/10 07:08:16;;;;;;;56.30;22.80;;;;;;;-144.99;77.68;79612.87;108043;1254;73458;-75
2024/01/10 07:10:44;;;;;;;59.10;27.10;;;;;;;-144.99;77.03;79599.73;107965;1254;70169;-73
2024/01/10 07:13:12;;;;;;;62.70;24.90;;;;;;;-144.99;76.81;79587.79;107898;1254;60856;-75
2024/01/10 07:15:39;;;;;;;52.80;24.00;;;;;;;-144.99;76.54;79575.44;107922;1255;60261;-74
2024/01/10 07:18:07;;;;;;;47.30;21.60;;;;;;;-144.99;76.32;79567.88;107941;1259;72999;-74
2024/01/10 07:20:37;;;;;;;57.90;23.50;;;;;;;-144.99;75.84;79562.30;107956;1254;73535;-74
2024/01/10 07:23:05;;;;;;;77.40;27.90;;;;;;;-144.99;75.73;79555.93;107974;1254;72596;-75
2024/01/10 07:25:38;;;;;;;71.00;27.00;;;;;;;-144.99;75.65;79544.39;107888;1255;60025;-79
2024/01/10 07:28:07;;;;;;;71.00;27.50;;;;;;;-144.99;75.14;79534.83;107972;1254;60196;-76
2024/01/10 07:30:36;;;;;;;55.80;24.30;;;;;;;-144.99;74.69;79532.05;107671;1263;73190;-76
2024/01/10 07:33:04;;;;;;;52.40;23.90;;;;;;;-144.99;74.12;79530.85;107808;1254;75774;-75
2024/01/10 07:35:32;;;;;;;47.00;20.00;;;;;;;-144.99;74.08;79534.83;107726;1254;72638;-76
2024/01/10 07:38:00;;;;;;;55.00;24.60;;;;;;;-144.99;73.85;79536.83;107769;1256;61670;-78
2024/01/10 07:40:28;;;;;;;60.30;27.40;;;;;;;-144.99;74.43;79534.84;107771;1254;60746;-75
2024/01/10 07:42:56;;;;;;;51.60;23.60;;;;;;;-144.99;74.43;79526.08;107863;1256;72574;-75
2024/01/10 07:45:24;;;;;;;55.10;24.80;;;;;;;-144.99;74.72;79518.11;108235;1251;73532;-74
2024/01/10 07:47:52;;;;;;;49.90;22.90;;;;;;;-144.99;74.96;79512.54;108249;1257;72597;-75
2024/01/10 07:50:20;;;;;;;54.50;22.30;;;;;;;-144.99;75.17;79502.19;108381;1251;60426;-77
2024/01/10 07:52:49;;;;;;;52.40;22.70;;;;;;;-144.99;75.12;79492.23;108388;1251;60736;-76
2024/01/10 07:55:16;;;;;;;55.70;24.80;;;;;;;-144.99;74.51;79483.48;108350;1254;74077;-75
2024/01/10 07:57:44;;;;;;;54.70;24.90;;;;;;;-144.99;74.05;79475.91;108404;1251;72728;-75
2024/01/10 08:00:13;;;;;;;52.40;22.90;;;;;;;-144.99;73.65;79467.95;108292;1256;74965;-76
2024/01/10 08:02:41;;;;;;;47.30;23.00;;;;;;;-144.99;73.17;79459.59;108212;1251;60846;-75
2024/01/10 08:05:10;;;;;;;46.20;21.60;;;;;;;-144.99;73.22;79459.19;108432;1254;60312;-74
2024/01/10 08:07:38;;;;;;;53.70;24.10;;;;;;;-144.99;72.94;79457.20;108463;1250;72913;-76
2024/01/10 08:10:10;;;;;;;47.60;23.10;;;;;;;-144.99;73.04;79455.61;108436;1251;72885;-76
2024/01/10 08:12:40;;;;;;;54.10;23.90;;;;;;;-144.99;73.25;79452.83;108305;1251;72705;-75
2024/01/10 08:15:08;;;;;;;55.10;24.90;;;;;;;-144.99;73.19;79443.27;108447;1251;60283;-77
2024/01/10 08:17:37;;;;;;;49.80;21.50;;;;;;;-144.99;73.03;79438.49;108358;1251;60725;-75
2024/01/10 08:20:08;;;;;;;50.80;23.00;;;;;;;-144.99;73.08;79433.31;108535;1249;73090;-76
2024/01/10 08:22:37;;;;;;;52.00;23.20;;;;;;;-144.99;73.42;79423.36;108345;1256;74676;-76
2024/01/10 08:25:06;;;;;;;53.20;21.80;;;;;;;-144.99;72.99;79415.80;108251;1251;73678;-75
2024/01/10 08:27:34;;;;;;;51.50;23.10;;;;;;;-144.99;73.00;79413.81;108327;1255;60279;-75
2024/01/10 08:30:05;;;;;;;72.30;24.80;;;;;;;-144.99;73.11;79409.83;108403;1251;62163;-74
2024/01/10 08:32:35;;;;;;;61.70;23.30;;;;;;;-144.99;73.02;79407.45;108340;1251;72342;-74
2024/01/10 08:35:10;;;;;;;55.90;23.40;;;;;;;-144.99;72.91;79399.08;108406;1250;73798;-74
2024/01/10 08:37:40;;;;;;;50.10;23.20;;;;;;;-144.99;72.53;79403.06;108212;1251;74046;-73
2024/01/10 08:40:11;;;;;;;51.40;22.70;;;;;;;-144.99;72.78;79401.87;108441;1250;62226;-74
2024/01/10 08:42:39;;;;;;;53.00;24.40;;;;;;;-144.99;73.20;79398.29;108404;1249;60130;-74
2024/01/10 08:45:09;;;;;;;50.40;23.40;;;;;;;-144.99;73.43;79393.90;108302;1251;71944;-75
2024/01/10 08:47:37;;;;;;;53.30;24.90;;;;;;;-144.99;73.18;79385.55;108390;1251;74295;-74
2024/01/10 08:50:08;;;;;;;54.30;25.30;;;;;;;-144.99;73.11;79381.96;108405;1254;71219;-75
2024/01/10 08:52:40;;;;;;;55.90;26.20;;;;;;;-144.99;73.56;79376.79;108463;1251;60248;-75
2024/01/10 08:55:08;;;;;;;55.50;25.60;;;;;;;-144.99;74.13;79358.48;108450;1249;60369;-76
2024/01/10 08:57:40;;;;;;;55.60;25.60;;;;;;;-144.99;74.01;79340.16;108461;1250;72612;-75
2024/01/10 09:00:11;;;;;;;49.30;23.70;;;;;;;-144.99;73.57;79330.21;108418;1251;71026;-76
2024/01/10 09:02:40;;;;;;;66.60;29.10;;;;;;;-144.99;73.47;79313.89;108360;1251;70094;-74
2024/01/10 09:05:10;;;;;;;59.60;27.10;;;;;;;-144.99;73.21;79309.91;108436;1251;60258;-75
2024/01/10 09:07:39;;;;;;;52.80;24.30;;;;;;;-144.99;72.83;79305.13;108291;1251;60195;-74
2024/01/10 09:10:07;;;;;;;59.30;28.00;;;;;;;-144.99;72.67;79303.54;108379;1251;73083;-75
2024/01/10 09:12:35;;;;;;;60.70;28.60;;;;;;;-144.99;72.64;79295.17;108386;1251;73157;-76
2024/01/10 09:15:03;;;;;;;57.60;27.40;;;;;;;-144.99;72.16;79289.20;108324;1251;75859;-75
2024/01/10 09:17:31;;;;;;;58.40;25.30;;;;;;;-144.99;71.91;79288.02;108312;1251;61684;-74
2024/01/10 09:20:01;;;;;;;53.60;25.70;;;;;;;-144.99;72.15;79290.40;108405;1250;60349;-75
2024/01/10 09:22:29;;;;;;;51.50;24.20;;;;;;;-144.99;72.10;79284.83;108349;1251;73229;-76
2024/01/10 09:25:03;;;;;;;64.70;31.20;;;;;;;-144.99;71.88;79279.65;108406;1251;75704;-77
2024/01/10 09:27:34;;;;;;;58.30;26.70;;;;;;;-144.99;72.46;79272.09;108437;1251;71433;-76
2024/01/10 09:30:02;;;;;;;67.00;30.20;;;;;;;-144.99;72.16;79253.38;108513;1251;60325;-75
2024/01/10 09:32:30;;;;;;;59.80;27.10;;;;;;;-144.99;72.19;79245.81;108443;1251;60158;-74
2024/01/10 09:34:58;;;;;;;60.70;28.20;;;;;;;-144.99;72.39;79239.45;108481;1251;72234;-75
2024/01/10 09:37:26;;;;;;;55.20;26.70;;;;;;;-144.99;73.22;79232.68;108354;1251;72382;-76
2024/01/10 09:39:54;;;;;;;61.50;27.90;;;;;;;-144.99;72.62;79219.55;108411;1254;73359;-74
2024/01/10 09:42:25;;;;;;;52.90;26.70;;;;;;;-144.99;72.12;79211.98;108414;1251;62358;-76
2024/01/10 09:44:53;;;;;;;53.20;25.00;;;;;;;-144.99;72.16;79211.98;108452;1251;61904;-75
2024/01/10 09:47:21;;;;;;;62.80;30.00;;;;;;;-144.99;71.81;79207.20;108367;1255;75020;-75
2024/01/10 09:49:49;;;;;;;66.60;29.30;;;;;;;-144.99;71.39;79204.81;108313;1251;74259;-74
2024/01/10 09:52:25;;;;;;;53.10;25.20;;;;;;;-144.99;72.04;79199.64;108462;1253;75045;-74
2024/01/10 09:54:57;;;;;;;61.00;28.30;;;;;;;-144.99;72.27;79190.48;108428;1251;61531;-74
2024/01/10 09:57:25;;;;;;;57.20;28.10;;;;;;;-144.99;72.05;79181.73;108461;1249;60306;-75
2024/01/10 09:59:54;;;;;;;58.30;28.20;;;;;;;-144.99;72.31;79172.17;108433;1251;74162;-74
2024/01/10 10:02:23;;;;;;;57.40;26.10;;;;;;;-144.99;72.50;79160.63;108445;1251;74537;-74
2024/01/10 10:04:55;;;;;;;61.10;28.00;;;;;;;-144.99;72.92;79144.70;108425;1253;72900;-75
2024/01/10 10:07:24;;;;;;;59.90;26.60;;;;;;;-144.99;72.99;79136.73;108234;1251;61250;-74
2024/01/10 10:09:56;;;;;;;58.70;27.40;;;;;;;-144.99;72.61;79120.02;108460;1251;61002;-74
2024/01/10 10:12:42;;;;;;;60.20;28.40;;;;;;;-144.99;72.44;79120.02;108423;1256;75986;-74
2024/01/10 10:15:11;;;;;;;57.70;28.00;;;;;;;-144.99;73.23;79122.02;108412;1251;73149;-75
2024/01/10 10:17:46;;;;;;;52.80;26.30;;;;;;;-144.99;73.22;79120.42;108390;1251;72934;-74
2024/01/10 10:20:27;;;;;;;57.00;25.60;;;;;;;-144.99;73.23;79119.62;108374;1250;61242;-74
2024/01/10 10:23:06;;;;;;;50.30;25.90;;;;;;;-144.99;73.49;79114.05;108297;1251;60979;-74
2024/01/10 10:25:35;;;;;;;53.50;26.70;;;;;;;-144.99;73.44;79114.45;108445;1251;74722;-74
2024/01/10 10:28:03;;;;;;;57.20;27.10;;;;;;;-144.99;73.93;79112.86;108337;1251;73588;-75
2024/01/10 10:30:32;;;;;;;56.80;27.60;;;;;;;-144.99;73.80;79104.49;108330;1254;74484;-75
2024/01/10 10:33:04;;;;;;;52.10;25.40;;;;;;;-144.99;74.33;79102.51;108367;1251;62497;-74
2024/01/10 10:35:32;;;;;;;55.90;26.90;;;;;;;-144.99;74.31;79090.96;108418;1251;60354;-74
2024/01/10 10:38:09;;;;;;;51.70;25.70;;;;;;;-144.99;74.93;79075.83;108348;1250;73017;-74
2024/01/10 10:40:37;;;;;;;56.90;27.20;;;;;;;-144.99;74.99;79067.48;108364;1251;75396;-75
2024/01/10 10:43:05;;;;;;;59.10;28.00;;;;;;;-144.99;75.33;79058.72;108252;1251;72571;-75
2024/01/10 10:45:33;;;;;;;54.30;25.30;;;;;;;-144.99;75.94;79045.58;108327;1251;60438;-75
2024/01/10 10:48:01;;;;;;;56.60;26.20;;;;;;;-144.99;75.29;79030.06;108457;1250;60788;-73
2024/01/10 10:50:33;;;;;;;52.50;24.30;;;;;;;-144.99;74.91;79026.88;108302;1251;75992;-75
2024/01/10 10:53:05;;;;;;;53.60;24.50;;;;;;;-144.99;74.70;79022.09;108448;1251;75762;-75
2024/01/10 10:55:34;;;;;;;54.70;26.80;;;;;;;-144.99;74.62;79017.32;108453;1251;71843;-74
2024/01/10 10:58:02;;;;;;;54.50;26.30;;;;;;;-144.99;75.01;79010.15;108467;1251;61226;-74
2024/01/10 11:00:37;;;;;;;57.40;27.00;;;;;;;-144.99;75.17;79006.98;108399;1256;60798;-74
2024/01/10 11:03:05;;;;;;;57.30;27.30;;;;;;;-144.99;75.63;79000.99;108198;1250;74640;-73
2024/01/10 11:05:32;;;;;;;83.40;31.70;;;;;;;-144.99;75.78;78992.64;108215;1250;75024;-74
2024/01/10 11:08:01;;;;;;;74.20;31.90;;;;;;;-144.99;75.01;78990.25;108323;1250;75263;-74
2024/01/10 11:10:30;;;;;;;76.70;32.20;;;;;;;-144.99;74.73;78987.47;108295;1253;60309;-74
2024/01/10 11:13:32;;;;;;;74.00;31.00;;;;;;;-144.99;74.88;78983.08;108260;1251;60289;-74
2024/01/10 11:16:38;;;;;;;80.20;35.60;;;;;;;-144.99;74.20;78981.48;108467;1251;73634;-75
2024/01/10 11:19:28;;;;;;;74.30;32.80;;;;;;;-144.99;73.84;78981.89;108534;1251;75019;-75
2024/01/10 11:22:04;;;;;;;71.90;32.90;;;;;;;-144.99;72.31;78975.13;108478;1250;72680;-76
2024/01/10 11:24:32;;;;;;;80.90;33.20;;;;;;;-144.99;71.85;78981.09;108359;1251;60375;-75
2024/01/10 11:27:15;;;;;;;91.30;39.90;;;;;;;-144.99;72.00;78977.91;108426;1251;61143;-75
2024/01/10 11:29:45;;;;;;;72.00;31.50;;;;;;;-144.99;72.14;78969.95;108503;1251;75659;-75
2024/01/10 11:32:17;;;;;;;67.10;29.70;;;;;;;-144.99;71.95;78960.80;108403;1250;73621;-75
2024/01/10 11:34:53;;;;;;;59.40;30.30;;;;;;;-144.99;71.74;78953.23;108426;1251;74777;-73
2024/01/10 11:37:22;;;;;;;62.10;28.30;;;;;;;-144.99;71.56;78946.86;108432;1251;61924;-73
2024/01/10 11:39:50;;;;;;;69.20;29.90;;;;;;;-144.99;71.14;78941.69;108369;1251;60270;-73
2024/01/10 11:42:23;;;;;;;63.70;29.70;;;;;;;-144.99;71.06;78938.90;108390;1255;75254;-74
2024/01/10 11:44:54;;;;;;;61.60;29.30;;;;;;;-144.99;71.41;78929.74;108431;1251;75430;-75
2024/01/10 11:47:22;;;;;;;56.40;27.30;;;;;;;-144.99;71.47;78917.40;108395;1256;73570;-75
2024/01/10 11:49:57;;;;;;;69.10;31.50;;;;;;;-144.99;70.22;78907.45;108254;1251;61961;-74
2024/01/10 11:52:32;;;;;;;70.50;33.70;;;;;;;-144.99;68.92;78909.05;108464;1251;60321;-75
2024/01/10 11:55:00;;;;;;;66.40;32.00;;;;;;;-144.99;69.43;78906.66;108312;1251;74640;-74
2024/01/10 11:57:28;;;;;;;64.10;29.60;;;;;;;-144.99;69.63;78897.50;108251;1251;71687;-76
2024/01/10 12:00:00;;;;;;;67.10;32.00;;;;;;;-144.99;69.28;78879.20;108296;1250;72315;-75
2024/01/10 12:02:32;;;;;;;75.70;34.70;;;;;;;-144.99;69.21;78869.24;108216;1253;62120;-74
2024/01/10 12:05:01;;;;;;;70.50;32.60;;;;;;;-144.99;68.48;78865.66;108396;1250;60312;-76
2024/01/10 12:07:30;;;;;;;62.40;29.80;;;;;;;-144.99;68.44;78866.45;108354;1251;74721;-76
2024/01/10 12:09:58;;;;;;;59.70;29.10;;;;;;;-144.99;68.62;78870.84;108432;1251;75363;-74
2024/01/10 12:12:26;;;;;;;56.30;27.00;;;;;;;-144.99;68.53;78872.42;108301;1251;72653;-74
2024/01/10 12:14:54;;;;;;;64.70;29.40;;;;;;;-144.99;68.28;78881.98;108196;1250;60351;-77
2024/01/10 12:17:28;;;;;;;70.70;30.90;;;;;;;-144.99;68.73;78883.97;108250;1251;60941;-75
2024/01/10 12:19:56;;;;;;;75.50;34.90;;;;;;;-144.99;69.38;78882.38;109228;1251;75245;-74
2024/01/10 12:22:24;;;;;;;75.90;34.20;;;;;;;-144.99;69.87;78874.02;108166;1250;75280;-74
2024/01/10 12:24:52;;;;;;;69.10;30.90;;;;;;;-144.99;69.76;78864.86;109258;1249;74563;-74
2024/01/10 12:27:20;;;;;;;57.20;26.10;;;;;;;-144.99;68.79;78850.14;108331;1250;60989;-74
2024/01/10 12:29:53;;;;;;;53.50;26.20;;;;;;;-144.99;68.24;78848.95;108531;1249;60411;-76
2024/01/10 12:32:22;;;;;;;63.20;27.90;;;;;;;-144.99;68.35;78861.28;108383;1251;75771;-75
2024/01/10 12:35:02;;;;;;;53.20;26.10;;;;;;;-144.99;69.17;78858.50;108423;1251;75469;-76
2024/01/10 12:37:31;;;;;;;56.80;27.60;;;;;;;-144.99;69.20;78863.67;108378;1251;74046;-74
2024/01/10 12:39:59;;;;;;;56.80;26.20;;;;;;;-144.99;69.24;78863.27;108460;1250;61952;-75
2024/01/10 12:42:27;;;;;;;57.70;28.40;;;;;;;-144.99;68.97;78872.83;108424;1249;60382;-75
2024/01/10 12:44:54;;;;;;;59.60;26.80;;;;;;;-144.99;69.72;78877.60;108502;1251;75637;-75
2024/01/10 12:47:23;;;;;;;57.20;26.10;;;;;;;-144.99;69.99;78880.79;108323;1253;76206;-75
2024/01/10 12:49:52;;;;;;;64.10;28.10;;;;;;;-144.99;69.98;78883.17;108409;1251;74688;-75
2024/01/10 12:52:21;;;;;;;65.00;29.40;;;;;;;-144.99;70.49;78887.15;108414;1254;60532;-74
2024/01/10 12:54:52;;;;;;;65.70;30.60;;;;;;;-144.99;70.52;78885.16;108397;1251;60818;-74
2024/01/10 12:57:21;;;;;;;68.50;32.50;;;;;;;-144.99;70.97;78883.58;108394;1251;75863;-76
2024/01/10 12:59:48;;;;;;;94.10;42.90;;;;;;;-144.99;71.07;78878.80;108332;1251;75411;-77
2024/01/10 13:02:17;;;;;;;87.20;36.90;;;;;;;-144.99;71.08;78869.24;108357;1256;74793;-78
2024/01/10 13:04:45;;;;;;;62.00;30.00;;;;;;;-144.99;70.33;78857.70;108471;1253;60336;-77
2024/01/10 13:07:14;;;;;;;62.90;29.90;;;;;;;-144.99;69.85;78851.34;108404;1249;62184;-77
2024/01/10 13:09:42;;;;;;;59.50;27.50;;;;;;;-144.99;69.33;78848.95;108405;1251;75667;-74
2024/01/10 13:12:09;;;;;;;59.50;28.90;;;;;;;-144.99;69.29;78855.31;108345;1250;75292;-76
2024/01/10 13:14:37;;;;;;;56.20;26.50;;;;;;;-144.99;68.95;78858.89;108405;1251;73497;-76
2024/01/10 13:17:05;;;;;;;58.20;28.30;;;;;;;-144.99;68.50;78860.48;108352;1251;60449;-77
2024/01/10 13:19:33;;;;;;;60.50;27.00;;;;;;;-144.99;68.22;78863.67;108387;1251;61152;-76
2024/01/10 13:22:01;;;;;;;58.50;29.50;;;;;;;-144.99;68.42;78870.05;108396;1253;74597;-76
2024/01/10 13:24:31;;;;;;;63.80;30.10;;;;;;;-144.99;68.93;78870.84;108301;1251;75687;-80
2024/01/10 13:26:59;;;;;;;60.00;28.60;;;;;;;-144.99;68.47;78873.23;108455;1251;74493;-74
2024/01/10 13:29:27;;;;;;;55.00;26.30;;;;;;;-144.99;68.84;78874.02;108315;1253;61362;-76
2024/01/10 13:31:54;;;;;;;54.40;28.50;;;;;;;-144.99;69.02;78878.00;108370;1249;60826;-76
2024/01/10 13:34:22;;;;;;;55.30;28.70;;;;;;;-144.99;69.09;78876.80;108435;1251;75633;-76
2024/01/10 13:36:50;;;;;;;62.70;29.20;;;;;;;-144.99;69.27;78872.83;108470;1251;74569;-76
2024/01/10 13:39:17;;;;;;;68.00;31.70;;;;;;;-144.99;69.27;78871.63;108337;1251;73089;-75
2024/01/10 13:41:46;;;;;;;64.60;29.60;;;;;;;-144.99;69.44;78867.66;108342;1250;62521;-76
2024/01/10 13:44:14;;;;;;;73.10;31.90;;;;;;;-144.99;69.47;78862.48;108337;1250;60915;-76
2024/01/10 13:46:42;;;;;;;76.30;33.60;;;;;;;-144.99;69.86;78859.29;108323;1250;75658;-77
2024/01/10 13:49:11;;;;;;;74.90;32.20;;;;;;;-144.99;69.89;78856.90;108240;1251;75271;-75
2024/01/10 13:51:40;;;;;;;66.00;28.60;;;;;;;-144.99;70.02;78851.34;108231;1251;73980;-78
2024/01/10 13:54:09;;;;;;;61.00;27.20;;;;;;;-144.99;69.91;78852.52;108366;1249;61082;-75
2024/01/10 13:56:39;;;;;;;69.10;30.60;;;;;;;-144.99;70.18;78858.49;108363;1251;60742;-75
2024/01/10 13:59:07;;;;;;;65.00;30.50;;;;;;;-144.99;70.22;78863.67;108330;1251;74641;-75
2024/01/10 14:01:35;;;;;;;56.50;26.30;;;;;;;-144.99;70.58;78869.64;108262;1251;74350;-76
2024/01/10 14:04:03;;;;;;;47.50;23.10;;;;;;;-144.99;71.00;78876.80;108409;1250;72638;-78
2024/01/10 14:06:32;;;;;;;47.70;22.80;;;;;;;-144.99;71.47;78881.98;108149;1253;60530;-76
2024/01/10 14:09:01;;;;;;;51.60;26.00;;;;;;;-144.99;72.09;78891.93;108234;1250;62128;-76
2024/01/10 14:11:28;;;;;;;60.50;27.20;;;;;;;-144.99;72.19;78901.48;108259;1250;75897;-75
2024/01/10 14:13:56;;;;;;;57.00;25.90;;;;;;;-144.99;72.75;78899.10;108309;1249;74339;-77
2024/01/10 14:16:24;;;;;;;59.10;26.70;;;;;;;-144.99;73.38;78904.67;108383;1250;74875;-76
2024/01/10 14:18:51;;;;;;;51.70;24.80;;;;;;;-144.99;73.75;78903.87;108317;1251;60460;-76
2024/01/10 14:21:19;;;;;;;58.60;26.30;;;;;;;-144.99;73.71;78910.23;108220;1250;60876;-76
2024/01/10 14:23:47;;;;;;;60.70;27.20;;;;;;;-144.99;73.96;78912.23;108289;1251;76401;-77
2024/01/10 14:26:16;;;;;;;60.40;28.70;;;;;;;-144.99;74.26;78921.39;108483;1249;73846;-77
2024/01/10 14:28:44;;;;;;;66.50;30.70;;;;;;;-144.99;74.32;78931.73;108374;1253;74787;-77
2024/01/10 14:31:13;;;;;;;61.30;29.90;;;;;;;-144.99;74.65;78937.71;108450;1251;62215;-77
2024/01/10 14:33:57;;;;;;;64.60;29.80;;;;;;;-144.99;74.80;78950.85;108350;1249;60781;-77
2024/01/10 14:36:25;;;;;;;56.70;27.00;;;;;;;-144.99;75.05;78961.20;108312;1253;75600;-76
2024/01/10 14:38:55;;;;;;;66.00;28.80;;;;;;;-144.99;75.27;78963.19;108375;1251;74323;-77
2024/01/10 14:41:22;;;;;;;59.40;29.50;;;;;;;-144.99;75.65;78966.77;108472;1251;74493;-77
2024/01/10 14:43:50;;;;;;;59.90;28.00;;;;;;;-144.99;75.77;78972.73;108481;1251;60298;-76
2024/01/10 14:46:18;;;;;;;66.70;29.90;;;;;;;-144.99;75.99;78969.55;108425;1251;61806;-75
2024/01/10 14:48:46;;;;;;;61.60;27.70;;;;;;;-144.99;76.17;78971.14;108369;1251;74300;-76
2024/01/10 14:51:15;;;;;;;69.30;31.00;;;;;;;-144.99;76.22;78971.55;108380;1250;75139;-77
2024/01/10 14:53:42;;;;;;;64.30;29.30;;;;;;;-144.99;76.02;78971.55;108437;1251;74938;-76
2024/01/10 14:56:10;;;;;;;64.10;31.40;;;;;;;-144.99;76.15;78968.76;108373;1251;60823;-76
2024/01/10 14:58:39;;;;;;;54.40;26.70;;;;;;;-144.99;75.97;78974.33;108459;1250;60801;-76
2024/01/10 15:01:08;;;;;;;62.40;26.80;;;;;;;-144.99;76.03;78975.52;108437;1249;73591;-75
2024/01/10 15:03:36;;;;;;;59.50;28.60;;;;;;;-144.99;75.93;78977.91;108372;1250;75398;-75
2024/01/10 15:06:07;;;;;;;58.80;28.70;;;;;;;-144.99;76.33;78980.30;108406;1253;74530;-78
2024/01/10 15:08:35;;;;;;;61.80;28.10;;;;;;;-144.99;76.72;78985.08;108361;1255;61810;-76
2024/01/10 15:11:03;;;;;;;67.70;31.50;;;;;;;-144.99;77.13;78990.65;108341;1251;60990;-77
2024/01/10 15:13:31;;;;;;;65.50;31.30;;;;;;;-144.99;77.51;78995.42;108709;1251;76171;-74
2024/01/10 15:15:59;;;;;;;67.90;33.20;;;;;;;-144.99;77.79;78995.42;108831;1253;75268;-78
2024/01/10 15:18:26;;;;;;;74.50;32.50;;;;;;;-144.99;77.80;78993.84;108352;1251;72481;-76
2024/01/10 15:20:54;;;;;;;63.30;30.10;;;;;;;-144.99;77.95;78990.64;108402;1251;60424;-74
2024/01/10 15:23:21;;;;;;;61.30;27.80;;;;;;;-144.99;77.95;78997.81;108376;1249;60954;-74
2024/01/10 15:25:49;;;;;;;68.60;32.50;;;;;;;-144.99;77.91;78997.81;108438;1251;74660;-75
2024/01/10 15:28:17;;;;;;;65.10;29.90;;;;;;;-144.99;78.13;78999.80;108447;1250;74734;-76
2024/01/10 15:30:44;;;;;;;73.20;34.20;;;;;;;-144.99;78.07;79002.98;108626;1249;74471;-75
2024/01/10 15:33:15;;;;;;;84.50;38.80;;;;;;;-144.99;78.38;79009.75;108382;1249;60985;-76
2024/01/10 15:35:43;;;;;;;118.70;54.40;;;;;;;-144.99;78.36;79014.92;108400;1252;60221;-74
2024/01/10 15:38:11;;;;;;;112.30;51.50;;;;;;;-144.99;78.78;79017.72;108389;1251;75485;-76
2024/01/10 15:40:40;;;;;;;97.00;48.00;;;;;;;-144.99;79.05;79018.91;108441;1249;74678;-77
2024/01/10 15:43:08;;;;;;;68.60;33.50;;;;;;;-144.99;79.60;79020.50;108497;1252;74466;-74
2024/01/10 15:45:36;;;;;;;66.30;31.90;;;;;;;-144.99;79.85;79022.89;108475;1251;62655;-74
2024/01/10 15:48:06;;;;;;;58.10;28.00;;;;;;;-144.99;80.29;79028.46;108416;1251;62011;-74
2024/01/10 15:50:34;;;;;;;65.30;29.70;;;;;;;-144.99;80.45;79031.26;108494;1250;73866;-74
2024/01/10 15:53:03;;;;;;;62.60;29.70;;;;;;;-144.99;80.39;79037.63;108507;1250;73573;-74
2024/01/10 15:55:32;;;;;;;59.10;30.90;;;;;;;-144.99;80.41;79047.17;108472;1251;74608;-74
2024/01/10 15:57:59;;;;;;;56.40;27.50;;;;;;;-144.99;80.65;79053.94;108453;1250;61843;-74
2024/01/10 16:00:27;;;;;;;49.70;23.70;;;;;;;-144.99;80.46;79059.52;108496;1251;60975;-74
2024/01/10 16:02:55;;;;;;;58.50;27.80;;;;;;;-144.99;80.78;79068.67;108507;1251;75711;-74
2024/01/10 16:05:24;;;;;;;63.40;32.50;;;;;;;-144.99;81.25;79076.23;108537;1250;72876;-74
2024/01/10 16:07:52;;;;;;;75.00;38.50;;;;;;;-144.99;81.52;79085.79;108407;1251;73614;-74
2024/01/10 16:10:20;;;;;;;92.00;40.70;;;;;;;-144.99;82.27;79095.34;108470;1251;62803;-74
2024/01/10 16:12:48;;;;;;;86.90;42.00;;;;;;;-144.99;82.54;79096.93;108417;1250;60963;-74
2024/01/10 16:15:16;;;;;;;69.00;31.90;;;;;;;-144.99;82.90;79090.56;108486;1249;74653;-75
2024/01/10 16:17:43;;;;;;;56.40;25.40;;;;;;;-144.99;83.18;79085.39;108538;1250;73903;-75
2024/01/10 16:20:11;;;;;;;62.70;27.70;;;;;;;-144.99;82.96;79086.58;108479;1250;72906;-75
2024/01/10 16:22:39;;;;;;;65.00;30.70;;;;;;;-144.99;83.10;79081.41;108539;1251;60619;-74
2024/01/10 16:25:07;;;;;;;57.10;30.40;;;;;;;-144.99;83.17;79085.79;108499;1250;60408;-74
2024/01/10 16:27:35;;;;;;;64.30;29.40;;;;;;;-144.99;82.85;79083.00;108436;1249;75758;-75
2024/01/10 16:30:03;;;;;;;66.30;30.00;;;;;;;-144.99;82.67;79092.16;108499;1253;75448;-75
2024/01/10 16:32:30;;;;;;;65.50;28.10;;;;;;;-144.99;82.43;79096.13;108442;1251;74475;-77
2024/01/10 16:34:58;;;;;;;61.40;27.60;;;;;;;-144.99;82.22;79101.31;108446;1254;60830;-75
2024/01/10 16:37:27;;;;;;;63.70;30.00;;;;;;;-144.99;82.33;79111.27;108489;1251;60188;-75
2024/01/10 16:39:54;;;;;;;73.20;29.90;;;;;;;-144.99;82.47;79122.41;108478;1251;75419;-76
2024/01/10 16:42:22;;;;;;;86.50;43.80;;;;;;;-144.99;82.74;79127.98;108480;1249;74790;-74
2024/01/10 16:44:50;;;;;;;82.60;40.30;;;;;;;-144.99;82.96;79125.99;108488;1251;74658;-74
2024/01/10 16:47:17;;;;;;;83.30;41.80;;;;;;;-144.99;82.97;79122.01;108337;1251;61628;-75
2024/01/10 16:49:48;;;;;;;65.30;32.40;;;;;;;-144.99;83.32;79120.02;108468;1251;61474;-75
2024/01/10 16:52:16;;;;;;;86.60;37.90;;;;;;;-144.99;83.64;79116.84;108451;1249;74819;-75
2024/01/10 16:54:43;;;;;;;73.60;33.90;;;;;;;-144.99;83.59;79109.67;108492;1251;74224;-75
2024/01/10 16:57:11;;;;;;;90.10;35.80;;;;;;;-144.99;83.32;79102.91;108468;1251;73892;-75
2024/01/10 16:59:39;;;;;;;85.30;37.30;;;;;;;-144.99;82.86;79101.71;108502;1255;60950;-75